sensor_id;sensor_type;location;lat;lon;timestamp;P1;durP1;ratioP1;P2;durP2;ratioP2
5303;SDS011;2674;49.722;10.892;2023-12-28T00:00:12;5.80;;;4.30;;
5303;SDS011;2674;49.722;10.892;2023-12-28T00:02:38;11.57;;;4.07;;
5303;SDS011;2674;49.722;10.892;2023-12-28T00:05:05;5.97;;;4.37;;
5303;SDS011;2674;49.722;10.892;2023-12-28T00:07:31;6.80;;;5.97;;
5303;SDS011;2674;49.722;10.892;2023-12-28T00:09:57;7.87;;;4.47;;
5303;SDS011;2674;49.722;10.892;2023-12-28T00:12:26;4.93;;;3.70;;
5303;SDS011;2674;49.722;10.892;2023-12-28T00:14:52;5.47;;;4.10;;
5303;SDS011;2674;49.722;10.892;2023-12-28T00:17:18;6.30;;;3.83;;
5303;SDS011;2674;49.722;10.892;2023-12-28T00:19:44;9.53;;;3.40;;
5303;SDS011;2674;49.722;10.892;2023-12-28T00:22:09;7.63;;;3.70;;
5303;SDS011;2674;49.722;10.892;2023-12-28T00:24:35;6.13;;;3.77;;
5303;SDS011;2674;49.722;10.892;2023-12-28T00:27:01;5.97;;;3.67;;
5303;SDS011;2674;49.722;10.892;2023-12-28T00:29:27;9.23;;;4.03;;
5303;SDS011;2674;49.722;10.892;2023-12-28T00:31:54;5.60;;;3.53;;
5303;SDS011;2674;49.722;10.892;2023-12-28T00:34:20;5.43;;;4.00;;
5303;SDS011;2674;49.722;10.892;2023-12-28T00:36:46;5.00;;;3.53;;
5303;SDS011;2674;49.722;10.892;2023-12-28T00:39:11;11.47;;;4.20;;
5303;SDS011;2674;49.722;10.892;2023-12-28T00:41:37;6.43;;;3.60;;
5303;SDS011;2674;49.722;10.892;2023-12-28T00:44:03;5.17;;;2.90;;
5303;SDS011;2674;49.722;10.892;2023-12-28T00:46:31;8.33;;;2.73;;
5303;SDS011;2674;49.722;10.892;2023-12-28T00:48:57;9.43;;;4.27;;
5303;SDS011;2674;49.722;10.892;2023-12-28T00:51:23;5.80;;;3.67;;
5303;SDS011;2674;49.722;10.892;2023-12-28T00:53:49;3.07;;;2.87;;
5303;SDS011;2674;49.722;10.892;2023-12-28T00:56:14;6.97;;;2.90;;
5303;SDS011;2674;49.722;10.892;2023-12-28T00:58:41;5.63;;;3.60;;
5303;SDS011;2674;49.722;10.892;2023-12-28T01:01:08;6.30;;;3.83;;
5303;SDS011;2674;49.722;10.892;2023-12-28T01:03:35;3.30;;;3.00;;
5303;SDS011;2674;49.722;10.892;2023-12-28T01:06:01;3.57;;;2.83;;
5303;SDS011;2674;49.722;10.892;2023-12-28T01:08:27;5.47;;;3.03;;
5303;SDS011;2674;49.722;10.892;2023-12-28T01:10:52;3.60;;;3.30;;
5303;SDS011;2674;49.722;10.892;2023-12-28T01:13:18;3.67;;;3.27;;
5303;SDS011;2674;49.722;10.892;2023-12-28T01:15:44;3.17;;;2.87;;
5303;SDS011;2674;49.722;10.892;2023-12-28T01:18:10;3.03;;;2.70;;
5303;SDS011;2674;49.722;10.892;2023-12-28T01:20:35;4.77;;;3.10;;
5303;SDS011;2674;49.722;10.892;2023-12-28T01:23:02;4.07;;;2.97;;
5303;SDS011;2674;49.722;10.892;2023-12-28T01:25:28;4.77;;;3.20;;
5303;SDS011;2674;49.722;10.892;2023-12-28T01:27:54;4.13;;;3.40;;
5303;SDS011;2674;49.722;10.892;2023-12-28T01:30:20;3.83;;;2.83;;
5303;SDS011;2674;49.722;10.892;2023-12-28T01:32:45;3.40;;;3.10;;
5303;SDS011;2674;49.722;10.892;2023-12-28T01:35:11;4.00;;;2.80;;
5303;SDS011;2674;49.722;10.892;2023-12-28T01:37:37;3.80;;;2.80;;
5303;SDS011;2674;49.722;10.892;2023-12-28T01:40:03;3.77;;;2.77;;
5303;SDS011;2674;49.722;10.892;2023-12-28T01:42:29;4.30;;;3.10;;
5303;SDS011;2674;49.722;10.892;2023-12-28T01:44:56;6.67;;;3.17;;
5303;SDS011;2674;49.722;10.892;2023-12-28T01:47:23;4.27;;;2.77;;
5303;SDS011;2674;49.722;10.892;2023-12-28T01:49:52;6.60;;;3.17;;
5303;SDS011;2674;49.722;10.892;2023-12-28T01:52:19;4.33;;;3.00;;
5303;SDS011;2674;49.722;10.892;2023-12-28T01:54:45;6.60;;;3.30;;
5303;SDS011;2674;49.722;10.892;2023-12-28T01:57:11;2.80;;;2.60;;
5303;SDS011;2674;49.722;10.892;2023-12-28T01:59:38;4.43;;;2.43;;
5303;SDS011;2674;49.722;10.892;2023-12-28T02:02:05;3.67;;;2.97;;
5303;SDS011;2674;49.722;10.892;2023-12-28T02:04:32;3.70;;;3.03;;
5303;SDS011;2674;49.722;10.892;2023-12-28T02:06:59;2.77;;;2.20;;
5303;SDS011;2674;49.722;10.892;2023-12-28T02:09:25;5.10;;;2.90;;
5303;SDS011;2674;49.722;10.892;2023-12-28T02:11:52;3.80;;;3.33;;
5303;SDS011;2674;49.722;10.892;2023-12-28T02:14:19;3.07;;;2.87;;
5303;SDS011;2674;49.722;10.892;2023-12-28T02:16:54;4.40;;;3.37;;
5303;SDS011;2674;49.722;10.892;2023-12-28T02:19:32;3.83;;;3.20;;
5303;SDS011;2674;49.722;10.892;2023-12-28T02:22:05;5.73;;;3.37;;
5303;SDS011;2674;49.722;10.892;2023-12-28T02:24:32;3.33;;;3.03;;
5303;SDS011;2674;49.722;10.892;2023-12-28T02:27:14;6.43;;;3.60;;
5303;SDS011;2674;49.722;10.892;2023-12-28T02:29:40;3.30;;;2.90;;
5303;SDS011;2674;49.722;10.892;2023-12-28T02:32:06;4.53;;;3.10;;
5303;SDS011;2674;49.722;10.892;2023-12-28T02:34:36;3.30;;;2.80;;
5303;SDS011;2674;49.722;10.892;2023-12-28T02:37:05;8.40;;;3.90;;
5303;SDS011;2674;49.722;10.892;2023-12-28T02:39:31;6.27;;;3.93;;
5303;SDS011;2674;49.722;10.892;2023-12-28T02:41:58;8.83;;;3.57;;
5303;SDS011;2674;49.722;10.892;2023-12-28T02:44:24;2.80;;;2.60;;
5303;SDS011;2674;49.722;10.892;2023-12-28T02:46:50;3.17;;;2.97;;
5303;SDS011;2674;49.722;10.892;2023-12-28T02:49:16;3.40;;;3.10;;
5303;SDS011;2674;49.722;10.892;2023-12-28T02:51:42;4.43;;;3.37;;
5303;SDS011;2674;49.722;10.892;2023-12-28T02:54:07;3.70;;;3.00;;
5303;SDS011;2674;49.722;10.892;2023-12-28T02:56:33;3.20;;;2.40;;
5303;SDS011;2674;49.722;10.892;2023-12-28T02:58:59;7.70;;;3.50;;
5303;SDS011;2674;49.722;10.892;2023-12-28T03:01:25;5.50;;;3.27;;
5303;SDS011;2674;49.722;10.892;2023-12-28T03:03:51;3.10;;;2.80;;
5303;SDS011;2674;49.722;10.892;2023-12-28T03:06:16;3.63;;;2.70;;
5303;SDS011;2674;49.722;10.892;2023-12-28T03:08:42;3.40;;;3.10;;
5303;SDS011;2674;49.722;10.892;2023-12-28T03:11:08;4.27;;;2.97;;
5303;SDS011;2674;49.722;10.892;2023-12-28T03:13:34;3.20;;;2.90;;
5303;SDS011;2674;49.722;10.892;2023-12-28T03:15:59;4.13;;;3.57;;
5303;SDS011;2674;49.722;10.892;2023-12-28T03:18:25;8.07;;;4.00;;
5303;SDS011;2674;49.722;10.892;2023-12-28T03:20:51;8.83;;;3.87;;
5303;SDS011;2674;49.722;10.892;2023-12-28T03:23:17;5.00;;;3.40;;
5303;SDS011;2674;49.722;10.892;2023-12-28T03:25:43;4.37;;;3.10;;
5303;SDS011;2674;49.722;10.892;2023-12-28T03:28:08;4.57;;;3.70;;
5303;SDS011;2674;49.722;10.892;2023-12-28T03:30:34;2.77;;;2.53;;
5303;SDS011;2674;49.722;10.892;2023-12-28T03:33:00;3.47;;;3.00;;
5303;SDS011;2674;49.722;10.892;2023-12-28T03:35:26;3.20;;;2.77;;
5303;SDS011;2674;49.722;10.892;2023-12-28T03:37:51;3.50;;;3.20;;
5303;SDS011;2674;49.722;10.892;2023-12-28T03:40:17;6.33;;;3.00;;
5303;SDS011;2674;49.722;10.892;2023-12-28T03:42:43;2.57;;;2.37;;
5303;SDS011;2674;49.722;10.892;2023-12-28T03:45:09;4.93;;;3.30;;
5303;SDS011;2674;49.722;10.892;2023-12-28T03:47:37;3.10;;;2.80;;
5303;SDS011;2674;49.722;10.892;2023-12-28T03:50:02;4.40;;;3.23;;
5303;SDS011;2674;49.722;10.892;2023-12-28T03:52:28;3.13;;;2.83;;
5303;SDS011;2674;49.722;10.892;2023-12-28T03:54:55;5.17;;;3.50;;
5303;SDS011;2674;49.722;10.892;2023-12-28T03:57:21;5.97;;;3.30;;
5303;SDS011;2674;49.722;10.892;2023-12-28T03:59:47;3.53;;;3.00;;
5303;SDS011;2674;49.722;10.892;2023-12-28T04:02:13;4.90;;;3.37;;
5303;SDS011;2674;49.722;10.892;2023-12-28T04:04:38;6.47;;;3.07;;
5303;SDS011;2674;49.722;10.892;2023-12-28T04:07:05;3.97;;;3.17;;
5303;SDS011;2674;49.722;10.892;2023-12-28T04:09:34;6.80;;;3.53;;
5303;SDS011;2674;49.722;10.892;2023-12-28T04:12:00;3.53;;;2.90;;
5303;SDS011;2674;49.722;10.892;2023-12-28T04:14:25;4.33;;;3.30;;
5303;SDS011;2674;49.722;10.892;2023-12-28T04:16:51;3.27;;;2.93;;
5303;SDS011;2674;49.722;10.892;2023-12-28T04:19:17;3.77;;;2.80;;
5303;SDS011;2674;49.722;10.892;2023-12-28T04:21:43;2.67;;;2.30;;
5303;SDS011;2674;49.722;10.892;2023-12-28T04:24:09;3.37;;;2.90;;
5303;SDS011;2674;49.722;10.892;2023-12-28T04:26:35;4.40;;;2.90;;
5303;SDS011;2674;49.722;10.892;2023-12-28T04:29:01;3.73;;;3.43;;
5303;SDS011;2674;49.722;10.892;2023-12-28T04:31:27;3.23;;;2.50;;
5303;SDS011;2674;49.722;10.892;2023-12-28T04:33:53;3.73;;;3.30;;
5303;SDS011;2674;49.722;10.892;2023-12-28T04:36:19;4.17;;;3.10;;
5303;SDS011;2674;49.722;10.892;2023-12-28T04:38:45;5.30;;;2.70;;
5303;SDS011;2674;49.722;10.892;2023-12-28T04:41:11;3.20;;;2.43;;
5303;SDS011;2674;49.722;10.892;2023-12-28T04:43:36;5.27;;;3.10;;
5303;SDS011;2674;49.722;10.892;2023-12-28T04:46:06;3.53;;;3.23;;
5303;SDS011;2674;49.722;10.892;2023-12-28T04:48:32;5.20;;;2.93;;
5303;SDS011;2674;49.722;10.892;2023-12-28T04:50:58;4.23;;;3.10;;
5303;SDS011;2674;49.722;10.892;2023-12-28T04:53:23;4.20;;;2.50;;
5303;SDS011;2674;49.722;10.892;2023-12-28T04:55:49;4.73;;;2.90;;
5303;SDS011;2674;49.722;10.892;2023-12-28T04:58:15;3.83;;;2.77;;
5303;SDS011;2674;49.722;10.892;2023-12-28T05:00:41;2.97;;;2.73;;
5303;SDS011;2674;49.722;10.892;2023-12-28T05:03:07;4.80;;;2.80;;
5303;SDS011;2674;49.722;10.892;2023-12-28T05:05:33;3.10;;;2.80;;
5303;SDS011;2674;49.722;10.892;2023-12-28T05:07:59;3.13;;;2.37;;
5303;SDS011;2674;49.722;10.892;2023-12-28T05:10:24;4.00;;;3.20;;
5303;SDS011;2674;49.722;10.892;2023-12-28T05:12:50;2.83;;;2.57;;
5303;SDS011;2674;49.722;10.892;2023-12-28T05:15:16;3.63;;;2.80;;
5303;SDS011;2674;49.722;10.892;2023-12-28T05:17:44;5.83;;;3.27;;
5303;SDS011;2674;49.722;10.892;2023-12-28T05:20:10;4.67;;;3.57;;
5303;SDS011;2674;49.722;10.892;2023-12-28T05:22:36;9.40;;;3.20;;
5303;SDS011;2674;49.722;10.892;2023-12-28T05:25:02;5.43;;;3.30;;
5303;SDS011;2674;49.722;10.892;2023-12-28T05:27:37;5.07;;;2.90;;
5303;SDS011;2674;49.722;10.892;2023-12-28T05:30:59;4.37;;;2.97;;
5303;SDS011;2674;49.722;10.892;2023-12-28T05:33:57;2.67;;;2.30;;
5303;SDS011;2674;49.722;10.892;2023-12-28T05:36:23;3.97;;;2.70;;
5303;SDS011;2674;49.722;10.892;2023-12-28T05:38:49;3.60;;;3.23;;
5303;SDS011;2674;49.722;10.892;2023-12-28T05:41:15;3.20;;;2.87;;
5303;SDS011;2674;49.722;10.892;2023-12-28T05:43:41;3.43;;;2.47;;
5303;SDS011;2674;49.722;10.892;2023-12-28T05:46:07;3.03;;;2.40;;
5303;SDS011;2674;49.722;10.892;2023-12-28T05:48:33;2.80;;;2.40;;
5303;SDS011;2674;49.722;10.892;2023-12-28T05:51:02;3.03;;;2.83;;
5303;SDS011;2674;49.722;10.892;2023-12-28T05:53:27;2.40;;;2.13;;
5303;SDS011;2674;49.722;10.892;2023-12-28T05:55:54;3.93;;;3.00;;
5303;SDS011;2674;49.722;10.892;2023-12-28T05:58:23;2.83;;;2.53;;
5303;SDS011;2674;49.722;10.892;2023-12-28T06:00:49;5.87;;;3.47;;
5303;SDS011;2674;49.722;10.892;2023-12-28T06:03:14;4.03;;;3.73;;
5303;SDS011;2674;49.722;10.892;2023-12-28T06:05:40;4.17;;;3.10;;
5303;SDS011;2674;49.722;10.892;2023-12-28T06:08:06;3.20;;;2.70;;
5303;SDS011;2674;49.722;10.892;2023-12-28T06:10:32;6.57;;;3.30;;
5303;SDS011;2674;49.722;10.892;2023-12-28T06:12:58;3.83;;;2.70;;
5303;SDS011;2674;49.722;10.892;2023-12-28T06:15:23;3.53;;;2.73;;
5303;SDS011;2674;49.722;10.892;2023-12-28T06:17:52;2.23;;;2.00;;
5303;SDS011;2674;49.722;10.892;2023-12-28T06:20:29;2.67;;;2.47;;
5303;SDS011;2674;49.722;10.892;2023-12-28T06:22:55;2.80;;;2.60;;
5303;SDS011;2674;49.722;10.892;2023-12-28T06:25:23;2.70;;;2.23;;
5303;SDS011;2674;49.722;10.892;2023-12-28T06:27:52;2.60;;;2.40;;
5303;SDS011;2674;49.722;10.892;2023-12-28T06:30:20;3.53;;;2.60;;
5303;SDS011;2674;49.722;10.892;2023-12-28T06:32:46;5.33;;;3.07;;
5303;SDS011;2674;49.722;10.892;2023-12-28T06:35:12;2.00;;;1.90;;
5303;SDS011;2674;49.722;10.892;2023-12-28T06:37:38;3.70;;;2.60;;
5303;SDS011;2674;49.722;10.892;2023-12-28T06:40:03;3.20;;;2.67;;
5303;SDS011;2674;49.722;10.892;2023-12-28T06:42:30;3.97;;;2.90;;
5303;SDS011;2674;49.722;10.892;2023-12-28T06:44:55;5.60;;;2.90;;
5303;SDS011;2674;49.722;10.892;2023-12-28T06:47:21;4.97;;;2.70;;
5303;SDS011;2674;49.722;10.892;2023-12-28T06:49:47;4.57;;;3.00;;
5303;SDS011;2674;49.722;10.892;2023-12-28T06:52:13;3.23;;;2.87;;
5303;SDS011;2674;49.722;10.892;2023-12-28T06:54:43;2.87;;;2.60;;
5303;SDS011;2674;49.722;10.892;2023-12-28T06:57:08;3.07;;;2.43;;
5303;SDS011;2674;49.722;10.892;2023-12-28T06:59:34;3.10;;;2.73;;
5303;SDS011;2674;49.722;10.892;2023-12-28T07:02:00;2.70;;;2.40;;
5303;SDS011;2674;49.722;10.892;2023-12-28T07:04:26;3.10;;;2.43;;
5303;SDS011;2674;49.722;10.892;2023-12-28T07:06:54;2.97;;;2.60;;
5303;SDS011;2674;49.722;10.892;2023-12-28T07:09:20;2.87;;;2.67;;
5303;SDS011;2674;49.722;10.892;2023-12-28T07:11:46;4.03;;;3.03;;
5303;SDS011;2674;49.722;10.892;2023-12-28T07:14:12;4.20;;;3.17;;
5303;SDS011;2674;49.722;10.892;2023-12-28T07:16:37;9.33;;;3.40;;
5303;SDS011;2674;49.722;10.892;2023-12-28T07:19:03;8.27;;;3.77;;
5303;SDS011;2674;49.722;10.892;2023-12-28T07:21:29;5.10;;;3.63;;
5303;SDS011;2674;49.722;10.892;2023-12-28T07:23:55;3.60;;;3.10;;
5303;SDS011;2674;49.722;10.892;2023-12-28T07:26:20;14.30;;;3.87;;
5303;SDS011;2674;49.722;10.892;2023-12-28T07:28:46;3.67;;;3.33;;
5303;SDS011;2674;49.722;10.892;2023-12-28T07:31:23;5.37;;;2.83;;
5303;SDS011;2674;49.722;10.892;2023-12-28T07:33:52;3.77;;;3.40;;
5303;SDS011;2674;49.722;10.892;2023-12-28T07:36:19;4.87;;;2.40;;
5303;SDS011;2674;49.722;10.892;2023-12-28T07:38:45;2.13;;;1.93;;
5303;SDS011;2674;49.722;10.892;2023-12-28T07:41:11;9.60;;;2.27;;
5303;SDS011;2674;49.722;10.892;2023-12-28T07:43:37;2.30;;;2.10;;
5303;SDS011;2674;49.722;10.892;2023-12-28T07:46:03;4.40;;;2.47;;
5303;SDS011;2674;49.722;10.892;2023-12-28T07:48:30;1.83;;;1.73;;
5303;SDS011;2674;49.722;10.892;2023-12-28T07:51:05;5.80;;;2.10;;
5303;SDS011;2674;49.722;10.892;2023-12-28T07:53:32;2.00;;;1.77;;
5303;SDS011;2674;49.722;10.892;2023-12-28T07:55:58;3.17;;;2.27;;
5303;SDS011;2674;49.722;10.892;2023-12-28T07:58:23;3.50;;;2.80;;
5303;SDS011;2674;49.722;10.892;2023-12-28T08:00:49;2.63;;;2.23;;
5303;SDS011;2674;49.722;10.892;2023-12-28T08:03:16;2.47;;;1.93;;
5303;SDS011;2674;49.722;10.892;2023-12-28T08:05:42;4.37;;;2.40;;
5303;SDS011;2674;49.722;10.892;2023-12-28T08:08:08;2.10;;;2.00;;
5303;SDS011;2674;49.722;10.892;2023-12-28T08:10:34;1.90;;;1.73;;
5303;SDS011;2674;49.722;10.892;2023-12-28T08:13:00;2.00;;;1.90;;
5303;SDS011;2674;49.722;10.892;2023-12-28T08:15:25;4.00;;;1.87;;
5303;SDS011;2674;49.722;10.892;2023-12-28T08:17:51;2.72;;;2.22;;
5303;SDS011;2674;49.722;10.892;2023-12-28T08:20:17;2.83;;;1.90;;
5303;SDS011;2674;49.722;10.892;2023-12-28T08:22:43;2.70;;;2.27;;
5303;SDS011;2674;49.722;10.892;2023-12-28T08:25:08;1.93;;;1.83;;
5303;SDS011;2674;49.722;10.892;2023-12-28T08:27:35;2.13;;;1.93;;
5303;SDS011;2674;49.722;10.892;2023-12-28T08:30:01;2.10;;;2.00;;
5303;SDS011;2674;49.722;10.892;2023-12-28T08:32:27;2.97;;;2.63;;
5303;SDS011;2674;49.722;10.892;2023-12-28T08:34:53;3.10;;;2.20;;
5303;SDS011;2674;49.722;10.892;2023-12-28T08:37:19;4.40;;;2.30;;
5303;SDS011;2674;49.722;10.892;2023-12-28T08:39:44;3.40;;;2.20;;
5303;SDS011;2674;49.722;10.892;2023-12-28T08:42:10;2.13;;;1.93;;
5303;SDS011;2674;49.722;10.892;2023-12-28T08:44:36;4.03;;;2.50;;
5303;SDS011;2674;49.722;10.892;2023-12-28T08:47:02;2.50;;;2.30;;
5303;SDS011;2674;49.722;10.892;2023-12-28T08:49:28;2.50;;;2.30;;
5303;SDS011;2674;49.722;10.892;2023-12-28T08:51:54;3.30;;;2.93;;
5303;SDS011;2674;49.722;10.892;2023-12-28T08:54:20;2.73;;;2.53;;
5303;SDS011;2674;49.722;10.892;2023-12-28T08:56:46;2.80;;;2.60;;
5303;SDS011;2674;49.722;10.892;2023-12-28T08:59:13;2.90;;;2.63;;
5303;SDS011;2674;49.722;10.892;2023-12-28T09:01:39;2.60;;;2.43;;
5303;SDS011;2674;49.722;10.892;2023-12-28T09:04:04;2.97;;;2.27;;
5303;SDS011;2674;49.722;10.892;2023-12-28T09:06:30;3.07;;;2.43;;
5303;SDS011;2674;49.722;10.892;2023-12-28T09:08:56;4.60;;;2.90;;
5303;SDS011;2674;49.722;10.892;2023-12-28T09:11:23;3.77;;;3.00;;
5303;SDS011;2674;49.722;10.892;2023-12-28T09:13:49;3.23;;;2.50;;
5303;SDS011;2674;49.722;10.892;2023-12-28T09:16:15;4.13;;;3.43;;
5303;SDS011;2674;49.722;10.892;2023-12-28T09:18:41;5.30;;;3.97;;
5303;SDS011;2674;49.722;10.892;2023-12-28T09:21:07;3.70;;;3.40;;
5303;SDS011;2674;49.722;10.892;2023-12-28T09:23:34;10.23;;;2.73;;
5303;SDS011;2674;49.722;10.892;2023-12-28T09:26:01;5.63;;;3.33;;
5303;SDS011;2674;49.722;10.892;2023-12-28T09:28:31;6.30;;;3.10;;
5303;SDS011;2674;49.722;10.892;2023-12-28T09:30:58;4.27;;;3.07;;
5303;SDS011;2674;49.722;10.892;2023-12-28T09:33:24;5.60;;;3.83;;
5303;SDS011;2674;49.722;10.892;2023-12-28T09:35:49;6.90;;;3.70;;
5303;SDS011;2674;49.722;10.892;2023-12-28T09:38:15;3.57;;;2.90;;
5303;SDS011;2674;49.722;10.892;2023-12-28T09:40:41;3.80;;;2.83;;
5303;SDS011;2674;49.722;10.892;2023-12-28T09:43:24;3.73;;;3.27;;
5303;SDS011;2674;49.722;10.892;2023-12-28T09:45:51;3.03;;;2.50;;
5303;SDS011;2674;49.722;10.892;2023-12-28T09:48:18;2.93;;;2.50;;
5303;SDS011;2674;49.722;10.892;2023-12-28T09:50:49;3.50;;;3.00;;
5303;SDS011;2674;49.722;10.892;2023-12-28T09:53:23;3.20;;;2.33;;
5303;SDS011;2674;49.722;10.892;2023-12-28T09:55:49;2.30;;;2.10;;
5303;SDS011;2674;49.722;10.892;2023-12-28T09:58:19;4.67;;;2.93;;
5303;SDS011;2674;49.722;10.892;2023-12-28T10:00:46;2.30;;;2.03;;
5303;SDS011;2674;49.722;10.892;2023-12-28T10:03:13;3.20;;;2.90;;
5303;SDS011;2674;49.722;10.892;2023-12-28T10:05:49;4.10;;;2.67;;
5303;SDS011;2674;49.722;10.892;2023-12-28T10:08:20;2.97;;;2.10;;
5303;SDS011;2674;49.722;10.892;2023-12-28T10:10:46;2.30;;;2.20;;
5303;SDS011;2674;49.722;10.892;2023-12-28T10:13:17;2.40;;;2.20;;
5303;SDS011;2674;49.722;10.892;2023-12-28T10:15:43;1.90;;;1.80;;
5303;SDS011;2674;49.722;10.892;2023-12-28T10:18:09;2.30;;;2.10;;
5303;SDS011;2674;49.722;10.892;2023-12-28T10:20:35;2.87;;;2.63;;
5303;SDS011;2674;49.722;10.892;2023-12-28T10:23:01;4.33;;;2.50;;
5303;SDS011;2674;49.722;10.892;2023-12-28T10:25:27;2.03;;;1.90;;
5303;SDS011;2674;49.722;10.892;2023-12-28T10:27:54;3.40;;;2.70;;
5303;SDS011;2674;49.722;10.892;2023-12-28T10:30:20;4.57;;;3.10;;
5303;SDS011;2674;49.722;10.892;2023-12-28T10:32:52;3.30;;;3.00;;
5303;SDS011;2674;49.722;10.892;2023-12-28T10:35:38;5.07;;;3.00;;
5303;SDS011;2674;49.722;10.892;2023-12-28T10:41:23;3.63;;;2.70;;
5303;SDS011;2674;49.722;10.892;2023-12-28T10:44:11;3.27;;;2.37;;
5303;SDS011;2674;49.722;10.892;2023-12-28T10:46:41;2.63;;;2.40;;
5303;SDS011;2674;49.722;10.892;2023-12-28T10:49:12;2.10;;;2.00;;
5303;SDS011;2674;49.722;10.892;2023-12-28T10:51:46;4.43;;;2.57;;
5303;SDS011;2674;49.722;10.892;2023-12-28T10:57:28;2.20;;;2.07;;
5303;SDS011;2674;49.722;10.892;2023-12-28T11:00:07;2.80;;;2.60;;
5303;SDS011;2674;49.722;10.892;2023-12-28T11:02:42;2.73;;;2.53;;
5303;SDS011;2674;49.722;10.892;2023-12-28T11:05:13;3.70;;;2.73;;
5303;SDS011;2674;49.722;10.892;2023-12-28T11:07:42;3.03;;;2.70;;
5303;SDS011;2674;49.722;10.892;2023-12-28T11:10:09;4.10;;;2.60;;
5303;SDS011;2674;49.722;10.892;2023-12-28T11:12:39;3.03;;;2.80;;
5303;SDS011;2674;49.722;10.892;2023-12-28T11:15:06;8.27;;;3.27;;
5303;SDS011;2674;49.722;10.892;2023-12-28T11:17:37;2.40;;;2.20;;
5303;SDS011;2674;49.722;10.892;2023-12-28T11:20:04;2.20;;;2.10;;
5303;SDS011;2674;49.722;10.892;2023-12-28T11:22:33;3.27;;;2.90;;
5303;SDS011;2674;49.722;10.892;2023-12-28T11:25:05;3.10;;;2.60;;
5303;SDS011;2674;49.722;10.892;2023-12-28T11:27:39;2.60;;;2.27;;
5303;SDS011;2674;49.722;10.892;2023-12-28T11:30:11;3.07;;;2.80;;
5303;SDS011;2674;49.722;10.892;2023-12-28T11:32:47;6.90;;;2.90;;
5303;SDS011;2674;49.722;10.892;2023-12-28T11:35:17;4.17;;;3.30;;
5303;SDS011;2674;49.722;10.892;2023-12-28T11:37:53;3.00;;;2.50;;
5303;SDS011;2674;49.722;10.892;2023-12-28T11:40:20;3.53;;;2.80;;
5303;SDS011;2674;49.722;10.892;2023-12-28T11:42:49;2.70;;;2.50;;
5303;SDS011;2674;49.722;10.892;2023-12-28T11:45:35;3.00;;;2.70;;
5303;SDS011;2674;49.722;10.892;2023-12-28T11:48:01;2.37;;;2.17;;
5303;SDS011;2674;49.722;10.892;2023-12-28T11:50:29;2.60;;;2.40;;
5303;SDS011;2674;49.722;10.892;2023-12-28T11:52:55;3.33;;;2.40;;
5303;SDS011;2674;49.722;10.892;2023-12-28T11:55:21;2.00;;;1.90;;
5303;SDS011;2674;49.722;10.892;2023-12-28T11:57:48;5.23;;;2.40;;
5303;SDS011;2674;49.722;10.892;2023-12-28T12:00:14;3.33;;;2.47;;
5303;SDS011;2674;49.722;10.892;2023-12-28T12:02:43;2.67;;;2.47;;
5303;SDS011;2674;49.722;10.892;2023-12-28T12:05:12;2.80;;;2.60;;
5303;SDS011;2674;49.722;10.892;2023-12-28T12:07:39;3.03;;;2.47;;
5303;SDS011;2674;49.722;10.892;2023-12-28T12:10:06;3.27;;;3.00;;
5303;SDS011;2674;49.722;10.892;2023-12-28T12:12:31;4.40;;;3.63;;
5303;SDS011;2674;49.722;10.892;2023-12-28T12:14:57;3.20;;;2.83;;
5303;SDS011;2674;49.722;10.892;2023-12-28T12:17:24;5.33;;;3.23;;
5303;SDS011;2674;49.722;10.892;2023-12-28T12:19:50;2.87;;;2.70;;
5303;SDS011;2674;49.722;10.892;2023-12-28T12:22:20;2.40;;;2.20;;
5303;SDS011;2674;49.722;10.892;2023-12-28T12:24:47;3.23;;;2.27;;
5303;SDS011;2674;49.722;10.892;2023-12-28T12:27:15;5.03;;;3.23;;
5303;SDS011;2674;49.722;10.892;2023-12-28T12:29:42;5.00;;;3.80;;
5303;SDS011;2674;49.722;10.892;2023-12-28T12:32:08;4.00;;;3.17;;
5303;SDS011;2674;49.722;10.892;2023-12-28T12:34:35;4.60;;;3.50;;
5303;SDS011;2674;49.722;10.892;2023-12-28T12:37:00;9.30;;;3.80;;
5303;SDS011;2674;49.722;10.892;2023-12-28T12:39:27;6.83;;;3.90;;
5303;SDS011;2674;49.722;10.892;2023-12-28T12:41:53;5.40;;;4.20;;
5303;SDS011;2674;49.722;10.892;2023-12-28T12:44:20;13.13;;;6.40;;
5303;SDS011;2674;49.722;10.892;2023-12-28T12:46:47;8.30;;;3.60;;
5303;SDS011;2674;49.722;10.892;2023-12-28T12:49:13;5.40;;;2.67;;
5303;SDS011;2674;49.722;10.892;2023-12-28T12:51:41;2.00;;;1.90;;
5303;SDS011;2674;49.722;10.892;2023-12-28T12:54:07;2.53;;;2.30;;
5303;SDS011;2674;49.722;10.892;2023-12-28T12:56:34;1.97;;;1.80;;
5303;SDS011;2674;49.722;10.892;2023-12-28T12:59:00;2.87;;;2.50;;
5303;SDS011;2674;49.722;10.892;2023-12-28T13:01:26;2.57;;;2.30;;
5303;SDS011;2674;49.722;10.892;2023-12-28T13:03:52;3.10;;;2.80;;
5303;SDS011;2674;49.722;10.892;2023-12-28T13:06:18;2.57;;;2.20;;
5303;SDS011;2674;49.722;10.892;2023-12-28T13:08:47;2.23;;;1.90;;
5303;SDS011;2674;49.722;10.892;2023-12-28T13:11:13;3.40;;;3.10;;
5303;SDS011;2674;49.722;10.892;2023-12-28T13:13:40;2.37;;;2.17;;
5303;SDS011;2674;49.722;10.892;2023-12-28T13:16:06;2.57;;;2.37;;
5303;SDS011;2674;49.722;10.892;2023-12-28T13:18:32;3.23;;;2.97;;
5303;SDS011;2674;49.722;10.892;2023-12-28T13:21:00;2.60;;;2.40;;
5303;SDS011;2674;49.722;10.892;2023-12-28T13:23:26;6.13;;;2.70;;
5303;SDS011;2674;49.722;10.892;2023-12-28T13:25:54;4.70;;;2.37;;
5303;SDS011;2674;49.722;10.892;2023-12-28T13:28:19;4.60;;;3.30;;
5303;SDS011;2674;49.722;10.892;2023-12-28T13:30:45;3.80;;;2.90;;
5303;SDS011;2674;49.722;10.892;2023-12-28T13:33:14;2.37;;;2.23;;
5303;SDS011;2674;49.722;10.892;2023-12-28T13:35:40;4.23;;;2.50;;
5303;SDS011;2674;49.722;10.892;2023-12-28T13:38:06;2.50;;;2.27;;
5303;SDS011;2674;49.722;10.892;2023-12-28T13:40:35;2.40;;;2.20;;
5303;SDS011;2674;49.722;10.892;2023-12-28T13:43:01;4.67;;;2.67;;
5303;SDS011;2674;49.722;10.892;2023-12-28T13:45:30;4.10;;;2.70;;
5303;SDS011;2674;49.722;10.892;2023-12-28T13:47:58;2.80;;;2.40;;
5303;SDS011;2674;49.722;10.892;2023-12-28T13:50:24;2.83;;;2.63;;
5303;SDS011;2674;49.722;10.892;2023-12-28T13:52:53;3.63;;;2.87;;
5303;SDS011;2674;49.722;10.892;2023-12-28T13:55:19;4.60;;;2.37;;
5303;SDS011;2674;49.722;10.892;2023-12-28T13:57:45;4.60;;;2.37;;
5303;SDS011;2674;49.722;10.892;2023-12-28T14:00:11;3.03;;;2.80;;
5303;SDS011;2674;49.722;10.892;2023-12-28T14:02:38;2.73;;;2.53;;
5303;SDS011;2674;49.722;10.892;2023-12-28T14:05:07;3.47;;;2.67;;
5303;SDS011;2674;49.722;10.892;2023-12-28T14:07:33;2.80;;;2.53;;
5303;SDS011;2674;49.722;10.892;2023-12-28T14:09:59;2.57;;;2.37;;
5303;SDS011;2674;49.722;10.892;2023-12-28T14:12:25;4.57;;;2.83;;
5303;SDS011;2674;49.722;10.892;2023-12-28T14:14:50;2.27;;;1.97;;
5303;SDS011;2674;49.722;10.892;2023-12-28T14:17:17;2.53;;;2.30;;
5303;SDS011;2674;49.722;10.892;2023-12-28T14:19:46;5.53;;;3.03;;
5303;SDS011;2674;49.722;10.892;2023-12-28T14:22:12;9.00;;;3.70;;
5303;SDS011;2674;49.722;10.892;2023-12-28T14:24:39;4.80;;;3.87;;
5303;SDS011;2674;49.722;10.892;2023-12-28T14:27:05;4.70;;;4.23;;
5303;SDS011;2674;49.722;10.892;2023-12-28T14:29:31;3.77;;;3.23;;
5303;SDS011;2674;49.722;10.892;2023-12-28T14:31:57;5.87;;;3.90;;
5303;SDS011;2674;49.722;10.892;2023-12-28T14:34:24;7.53;;;4.60;;
5303;SDS011;2674;49.722;10.892;2023-12-28T14:36:52;8.93;;;4.20;;
5303;SDS011;2674;49.722;10.892;2023-12-28T14:39:18;10.13;;;4.63;;
5303;SDS011;2674;49.722;10.892;2023-12-28T14:41:44;10.20;;;4.47;;
5303;SDS011;2674;49.722;10.892;2023-12-28T14:44:10;6.93;;;3.43;;
5303;SDS011;2674;49.722;10.892;2023-12-28T14:46:36;3.63;;;3.07;;
5303;SDS011;2674;49.722;10.892;2023-12-28T14:49:02;2.63;;;2.17;;
5303;SDS011;2674;49.722;10.892;2023-12-28T14:51:31;5.13;;;2.90;;
5303;SDS011;2674;49.722;10.892;2023-12-28T14:53:57;8.07;;;3.00;;
5303;SDS011;2674;49.722;10.892;2023-12-28T14:56:23;4.00;;;3.60;;
5303;SDS011;2674;49.722;10.892;2023-12-28T14:58:48;4.53;;;3.43;;
5303;SDS011;2674;49.722;10.892;2023-12-28T15:01:14;5.03;;;3.40;;
5303;SDS011;2674;49.722;10.892;2023-12-28T15:03:41;7.80;;;4.10;;
5303;SDS011;2674;49.722;10.892;2023-12-28T15:06:07;5.10;;;3.70;;